Welcome to Des Moines Iowa Weather. I am an independent private personal weather station on the Northwest Side of Des Moines, Iowa. Just East of Windsor Heights and just West of Glendale . This site is also mobile friendly.

There are no active watches, warnings or advisories


Visit our other weather sites:

Historical Data

Weather Station Setup



Weather Underground History page Text

Daily Summary for June 29, 2017 Units:  English    Metric   Both
« Previous Day
Next Day »
Daily Weekly Monthly Yearly Custom
  High: Low: Average:
Temperature: 85.9 °F 67.1 °F 75.1 °F
Dew Point: 71.0 °F 66.0 °F 67.8 °F
Humidity: 96 % 56 % 79 %
Wind Speed: 4.0 mph 0.0 mph 0.3 mph
Wind Gust: 9.0 mph - -
Wind:- - SE
Pressure: 29.80 in 29.63 in -
Precipitation: 0.01 in    
Historical Graphs
 
 
Tabular Data for June 29, 2017
Time Temperature Dew Point Pressure Wind Wind Speed Wind Gust Humidity Rainfall Rate (Hourly)
00:03 67.9 °F 66.0 °F 29.64 in Calm   1.0 mph 92 % 0.00 in
00:18 67.9 °F 66.0 °F 29.63 in Calm     93 % 0.00 in
00:34 67.9 °F 66.0 °F 29.63 in Calm     93 % 0.00 in
00:49 67.9 °F 66.0 °F 29.63 in Calm     93 % 0.00 in
01:04 67.8 °F 66.0 °F 29.64 in Calm     93 % 0.00 in
01:19 67.7 °F 66.0 °F 29.65 in Calm     93 % 0.00 in
01:34 67.5 °F 66.0 °F 29.66 in Calm     93 % 0.00 in
01:49 67.4 °F 66.0 °F 29.66 in Calm     94 % 0.00 in
02:04 67.5 °F 66.0 °F 29.66 in Calm     94 % 0.00 in
02:19 67.4 °F 66.0 °F 29.67 in Calm     94 % 0.00 in
02:34 67.3 °F 66.0 °F 29.68 in Calm   1.0 mph 94 % 0.00 in
02:49 67.4 °F 66.0 °F 29.68 in Calm     94 % 0.00 in
03:04 67.2 °F 66.0 °F 29.67 in Calm     94 % 0.00 in
03:19 67.2 °F 66.0 °F 29.68 in Calm     95 % 0.00 in
03:34 67.1 °F 66.0 °F 29.67 in Calm     95 % 0.00 in
03:49 67.1 °F 66.0 °F 29.68 in Calm     95 % 0.00 in
04:04 67.1 °F 66.0 °F 29.69 in Calm     95 % 0.00 in
04:19 67.1 °F 66.0 °F 29.69 in Calm   1.0 mph 95 % 0.00 in
04:34 67.1 °F 66.0 °F 29.69 in Calm     95 % 0.00 in
04:49 67.2 °F 66.0 °F 29.69 in Calm     95 % 0.00 in
05:04 67.2 °F 66.0 °F 29.69 in Calm     95 % 0.00 in
05:19 67.4 °F 66.0 °F 29.70 in Calm   4.0 mph 96 % 0.00 in
05:34 68.1 °F 67.0 °F 29.70 in Calm   3.0 mph 96 % 0.00 in
05:49 68.6 °F 68.0 °F 29.70 in Calm   3.0 mph 96 % 0.00 in
06:04 68.9 °F 68.0 °F 29.70 in Calm   2.0 mph 96 % 0.00 in
06:19 69.0 °F 68.0 °F 29.69 in Calm   3.0 mph 96 % 0.00 in
06:34 69.1 °F 68.0 °F 29.70 in Calm   2.0 mph 96 % 0.00 in
06:49 69.3 °F 68.0 °F 29.69 in Calm   3.0 mph 96 % 0.00 in
07:04 69.7 °F 68.0 °F 29.68 in Calm   3.0 mph 95 % 0.00 in
07:20 70.1 °F 68.0 °F 29.68 in Calm   3.0 mph 94 % 0.00 in
07:34 70.7 °F 68.0 °F 29.68 in Calm   3.0 mph 92 % 0.00 in
07:49 71.4 °F 68.0 °F 29.68 in Calm   4.0 mph 90 % 0.00 in
08:04 71.8 °F 68.0 °F 29.69 in Calm   4.0 mph 88 % 0.00 in
08:20 72.3 °F 68.0 °F 29.70 in Calm   4.0 mph 86 % 0.00 in
08:35 72.5 °F 67.0 °F 29.71 in Calm   3.0 mph 84 % 0.00 in
08:50 72.7 °F 68.0 °F 29.72 in Calm   4.0 mph 84 % 0.00 in
09:05 72.9 °F 68.0 °F 29.72 in Calm   7.0 mph 84 % 0.00 in
09:20 73.0 °F 68.0 °F 29.74 in Calm   5.0 mph 83 % 0.00 in
09:35 72.9 °F 67.0 °F 29.74 in Calm   7.0 mph 82 % 0.00 in
09:50 72.6 °F 67.0 °F 29.76 in Calm   9.0 mph 82 % 0.00 in
10:05 72.6 °F 67.0 °F 29.76 in SSW 1.0 mph 7.0 mph 83 % 0.00 in
10:20 72.8 °F 67.0 °F 29.75 in Calm   4.0 mph 83 % 0.00 in
10:35 73.2 °F 68.0 °F 29.75 in Calm   3.0 mph 84 % 0.00 in
10:50 73.8 °F 68.0 °F 29.74 in ENE 2.0 mph 4.0 mph 83 % 0.00 in
11:05 74.3 °F 69.0 °F 29.74 in SSW 4.0 mph 5.0 mph 82 % 0.00 in
11:20 75.2 °F 69.0 °F 29.73 in Calm   6.0 mph 81 % 0.00 in
11:35 76.4 °F 70.0 °F 29.74 in Calm   2.0 mph 80 % 0.00 in
11:50 77.3 °F 70.0 °F 29.74 in Calm   3.0 mph 78 % 0.00 in
12:05 78.4 °F 70.0 °F 29.74 in Calm   6.0 mph 74 % 0.00 in
12:20 79.3 °F 71.0 °F 29.74 in Calm   4.0 mph 75 % 0.00 in
12:35 80.1 °F 70.0 °F 29.73 in North 1.0 mph 4.0 mph 71 % 0.00 in
12:50 80.3 °F 69.0 °F 29.73 in NE 1.0 mph 6.0 mph 69 % 0.00 in
13:06 80.6 °F 69.0 °F 29.74 in Calm   6.0 mph 68 % 0.00 in
13:20 81.4 °F 69.0 °F 29.74 in Calm   3.0 mph 67 % 0.00 in
13:36 81.8 °F 68.0 °F 29.74 in Calm   5.0 mph 64 % 0.00 in
13:51 81.3 °F 68.0 °F 29.74 in SSE 4.0 mph 4.0 mph 64 % 0.00 in
14:06 82.0 °F 69.0 °F 29.75 in Calm   4.0 mph 64 % 0.00 in
14:21 82.3 °F 69.0 °F 29.77 in Calm   8.0 mph 65 % 0.00 in
14:36 82.4 °F 68.0 °F 29.75 in Calm   4.0 mph 62 % 0.00 in
14:51 82.9 °F 69.0 °F 29.75 in NE 1.0 mph 6.0 mph 63 % 0.01 in
15:06 83.3 °F 69.0 °F 29.74 in Calm   5.0 mph 63 % 0.01 in
15:21 84.0 °F 70.0 °F 29.74 in Calm   5.0 mph 62 % 0.01 in
15:36 84.4 °F 70.0 °F 29.74 in Calm   4.0 mph 62 % 0.01 in
15:51 84.8 °F 69.0 °F 29.74 in SSE 3.0 mph 4.0 mph 59 % 0.00 in
16:06 85.3 °F 71.0 °F 29.74 in ESE 1.0 mph 3.0 mph 62 % 0.00 in
16:21 85.2 °F 70.0 °F 29.74 in South 3.0 mph 4.0 mph 61 % 0.00 in
16:36 85.3 °F 69.0 °F 29.73 in Calm   6.0 mph 58 % 0.00 in
16:51 85.4 °F 69.0 °F 29.73 in Calm   6.0 mph 59 % 0.00 in
17:06 85.8 °F 70.0 °F 29.72 in Calm   4.0 mph 59 % 0.00 in
17:21 85.9 °F 70.0 °F 29.72 in Calm   4.0 mph 60 % 0.00 in
17:36 85.8 °F 68.0 °F 29.71 in Calm   3.0 mph 56 % 0.00 in
17:51 85.4 °F 68.0 °F 29.72 in Calm   4.0 mph 57 % 0.00 in
18:06 84.9 °F 68.0 °F 29.71 in ESE 1.0 mph 5.0 mph 58 % 0.00 in
18:21 83.8 °F 68.0 °F 29.72 in Calm   3.0 mph 60 % 0.00 in
18:36 82.8 °F 68.0 °F 29.74 in Calm   2.0 mph 62 % 0.00 in
19:06 81.3 °F 68.0 °F 29.72 in Calm   2.0 mph 65 % 0.00 in
19:22 80.5 °F 68.0 °F 29.73 in Calm   3.0 mph 65 % 0.00 in
19:36 79.9 °F 68.0 °F 29.73 in Calm   2.0 mph 67 % 0.00 in
19:51 79.1 °F 68.0 °F 29.74 in Calm   3.0 mph 68 % 0.00 in
20:06 78.5 °F 68.0 °F 29.75 in Calm     69 % 0.00 in
20:21 78.0 °F 67.0 °F 29.75 in Calm   2.0 mph 70 % 0.00 in
20:36 77.5 °F 67.0 °F 29.77 in Calm     71 % 0.00 in
20:51 77.1 °F 67.0 °F 29.77 in Calm     72 % 0.00 in
21:06 76.7 °F 67.0 °F 29.78 in Calm     73 % 0.00 in
21:21 76.4 °F 68.0 °F 29.78 in Calm     74 % 0.00 in
21:36 76.1 °F 68.0 °F 29.79 in Calm     75 % 0.00 in
21:51 75.9 °F 68.0 °F 29.79 in Calm     76 % 0.00 in
22:06 75.8 °F 68.0 °F 29.79 in Calm     77 % 0.00 in
22:21 75.7 °F 68.0 °F 29.80 in Calm     77 % 0.00 in
22:36 75.4 °F 68.0 °F 29.80 in East 1.0 mph 2.0 mph 78 % 0.00 in
22:51 75.1 °F 68.0 °F 29.78 in Calm     78 % 0.00 in
23:06 74.7 °F 68.0 °F 29.74 in East 1.0 mph 3.0 mph 80 % 0.00 in
23:22 74.0 °F 68.0 °F 29.74 in East 2.0 mph 3.0 mph 80 % 0.00 in
23:37 73.8 °F 67.0 °F 29.76 in Calm   2.0 mph 80 % 0.00 in
23:51 73.5 °F 68.0 °F 29.73 in WNW 2.0 mph 5.0 mph 83 % 0.00 in
Des Moines Weather and Climate
Compliments of Weather Underground - 3 mb

Script developed by  Jim McMurry - jmcmurry@mwt.net Adapted for the template by  Wim van der Kuil - Leuven-Template.eu

You find our weather info also at:

Weather Underground

Equipment we use:

Weather-station
Davis VP2 Plus

Weather-program
Davis Weatherlink.Com

Weather-server
iMac (Retina 4K, 21.5-inch, Late 2015)

Provider
Hostmonster.com

Davis VP2 Plus

Davis Weatherlink.Com

iMac (Retina 4K, 21.5-inch, Late 2015)

Hostmonster.com